Terminal Aerodrome Forecast
Issued by NWS

Home | Current Version | Previous Version | Text Only | Print | Product List | Glossary On
Versions: 1 2 3 4 5 6 7 8 9 10 11 12
000
FTUS45 KMSO 180533
TAFSMN
TAF
KSMN 180533Z 1806/1906 00000KT P6SM SKC
     FM181200 20008KT P6SM -SHRA BKN070 OVC100
     FM182100 25012KT P6SM VCSH BKN060 OVC080
     FM190300 VRB04KT P6SM SCT080
      AMD LTD TO CLD VIS AND WIND=

USA.gov is the U.S. government's official web portal to all federal, state and local government web resources and services.